Latest Observation

67 Stations

10 Minute Data
as of 5/9/26 7:36 PM PDT
Station Date Time Temp (°F) RH (%) Dew Pt (°F) Wind Spd (mph) Wind Dir (°) Wind Gust (mph) Wind Gst Dir (°) Latest Rain (In) Soil Moist (%) Soil Temp (°F) Daily Rain (In) Daily Min Temp (°F) Daily Max Temp (°F) Daily Max Wind (mph)
Hobart Mills 5/9/26 1930 63.0   3.4 33   15 33.4   6.3 2.3   2.3 WNW | 291 2.9   2.9 WNW | 294 0.00 - 32.0   0.0 0.03 28.9   0.0 73.1   2.5 9.4   0.9
Prosser Dam 5/9/26 1930 72.1   6.5 19   23 27.3   14.7 4.8   1.0 NNE | 28 7.2   1.7 NE | 50 0.00 21.1   1.2 54.3   1.9 0.00 35.9   7.2 74.8   3.0 16.2   6.1
West Incline Village 5/9/26 1930 65.0   4.1 24   7 27.0   2.9 0.4   0.1 ENE | 62 2.2   0.5 NE | 52 0.00 32.1   0.6 46.9   0.8 0.00 44.6   2.1 69.0   4.1 16.5   1.7
Incline Village (Fairview Blvd) 5/9/26 1930 66.5   6.6 21   20 24.9   11.2 0.1   0.1 NNE | 27 1.7   1.7 NE | 35 0.00 25.8   0.3 53.9   1.5 0.00 46.7   2.2 72.4   5.8 13.4   2.0
Incline Village (Diamond Peak) 5/9/26 1930 63.5 18 19.7 1.9 E | 81 2.2 ENE | 74 0.00 9.1 49.8 0.00 49.7 65.7 19.0
Incline Village (Mill Creek) 5/9/26 1930 67.9   5.3 21   14 26.2   8.4 0.5   0.8 ENE | 70 1.9   2.9 ESE | 120 0.00 10.9   0.1 47.7   0.8 0.00 45.4   4.4 72.3   5.3 15.6   0.1
Incline Village (Lakeshore Blvd) 5/9/26 1930 62.1   2.4 44   6 40.0   0.9 0.0   0.0 NW | 315 0.7   0.7 NW | 315 0.00 29.9   0.5 59.7   1.0 0.00 39.5   5.4 68.6   4.3 13.7   8.2
Glenbrook 5/9/26 1930 68.7   8.9 22   25 28.4   11.2 1.6   1.2 ENE | 58 3.5   1.6 NE | 45 0.00 44.3   0.1 46.0   0.3 0.00 40.7   3.2 70.3   3.8 17.4   11.7
Zephyr Cove 5/9/26 1930 64.3   2.9 28   8 30.6   3.5 0.0   0.2 N | 0 0.0   1.5 NNE | 24 0.00 - 34.3   0.0 0.00 44.5   4.8 68.3   0.1 7.1   0.2
Kingsbury Grade 5/9/26 1930 66.0   5.7 20   17 23.9   10.1 0.2   0.0 NE | 38 1.5   1.0 N | 0 0.00 6.3   0.5 59.8   2.0 0.00 42.9   6.4 69.9   0.7 19.1   5.5
South Daggett Pass (Ridge) 5/9/26 1930 63.2   5.4 21   16 22.6   9.2 1.5   1.4 ESE | 102 5.6   4.7 SE | 130 0.00 6.7   0.0 50.3   1.3 0.00 49.3   8.2 65.9   3.3 15.6   1.2
Palomino Valley 5/9/26 1930 76.7   1.2 15   6 25.8   7.8 3.1   8.7 NW | 323 6.0   9.8 NW | 307 0.00 7.2   0.1 72.1   1.8 0.00 41.4   0.2 81.7   1.9 20.2   4.1
East Cold Springs 5/9/26 1930 72.2   3.5 18   11 26.6   8.7 3.5   2.4 NNE | 14 7.5   1.6 NNE | 27 0.00 1.8   0.1 60.7   1.0 0.00 50.5   5.4 77.2   3.0 27.0   4.3
Peavine 5/9/26 1930 60.4   3.4 28   3 27.3   5.8 6.4   2.1 SW | 215 9.1   1.9 SW | 219 0.00 - 53.4   0.0 0.00 46.0   0.7 74.5   3.8 16.2   7.9
West Verdi Peak 5/9/26 1930 69.7   5.5 19   14 25.2   9.4 0.0   1.4 E | 82 0.7   5.7 E | 82 0.00 18.4   1.4 57.4   1.1 0.00 48.4   4.7 74.1   2.6 16.0   3.6
West Verdi 5/9/26 1930 68.6   0.4 23   9 29.5   7.5 6.9   0.6 W | 275 10.4   1.7 W | 272 0.00 7.8   0.1 67.9   1.6 0.00 45.4   2.8 78.3   2.2 14.5   5.7
South Verdi 5/9/26 1930 73.9   5.9 17   14 26.1   10.3 6.7   0.3 WSW | 248 7.7   1.9 WSW | 248 0.00 16.3   0.2 69.4   1.3 0.00 51.7   11.1 76.0   2.1 28.8   1.7
Northwest Reno 5/9/26 1930 74.6   4.4 14   11 21.8   11.1 6.3   3.4 NNE | 26 8.9   3.1 NNE | 27 0.00 24.2   0.2 70.0   1.9 0.00 54.3   5.5 79.2   2.3 34.4   6.4
North Lawton 5/9/26 1930 74.8   3.7 15   10 23.7   10.1 4.3   2.7 NNW | 344 6.8   4.0 NNW | 341 0.00 - 60.4   0.0 0.00 48.0   0.8 78.9   1.9 17.9   4.1
West Reno (Mogul) 5/9/26 1930 75.5   4.5 14   13 23.4   12.4 1.2   6.1 SSE | 149 4.5   9.8 SSE | 153 0.00 36.0   0.6 63.6   1.0 0.00 48.5   1.1 78.0   0.8 21.0   3.7
Caughlin (Hunter Lake Trail) 9/16/25 0800 59.7   3.5 41   11 35.9   2.7 0.0   0.0 N | 0 0.0   0.0 ENE | 66 0.00 15.7   0.0 69.8   0.5 0.00 55.7   3.2 67.7   9.1 9.4   0.9
ArrowCreek 5/9/26 1930 73.5   4.5 16   10 24.9   7.9 7.8   0.9 W | 263 10.6   1.2 W | 274 0.00 - 32.0   0.0 0.00 50.4   4.4 78.6   1.6 15.3   10.7
Tracy 5/9/26 1930 79.8   2.3 11   10 20.7   13.8 4.6   3.9 ENE | 76 7.2   6.6 ENE | 68 0.00 8.1   0.1 69.5   1.4 0.00 52.2   0.7 82.5   1.3 20.5   3.5
Virginia Highlands 5/9/26 1930 70.2   2.4 15   9 20.0   8.9 4.6   1.8 E | 100 8.2   4.7 E | 97 0.00 7.9   0.2 59.0   1.1 0.00 53.6   4.2 74.4   1.6 16.3   3.4
Virginia City 5/9/26 1930 67.9   3.2 14   14 17.8   13.4 0.7   8.9 NNW | 344 2.4   13.3 N | 0 0.00 8.5   0.0 61.8   1.7 0.00 53.6   0.4 73.3   2.2 27.1   3.8
Six Mile Canyon 9/9/25 0630 60.2   9.6 37   6 33.7   4.8 4.1   2.5 W | 277 6.1   2.9 WNW | 286 0.00 12.5   0.0 75.5   0.7 0.00 57.9   7.6 64.4   1.9 7.0   3.9
Mt Rose Highway 4/30/26 0510 40.8   4.7 47   13 22.3   1.3 2.3   0.2 WSW | 243 4.8   2.1 WSW | 246 0.00 24.1   0.3 43.0   0.8 0.00 40.5   4.7 43.0   5.3 7.7   0.4
Pleasant Valley 5/9/26 1930 73.4   0.9 23   2 33.0   0.9 1.0   3.2 W | 272 3.6   4.6 W | 271 0.00 2.9   0.1 68.3   1.8 0.00 47.6   6.6 81.7   4.8 13.2   6.5
New Washoe City 5/9/26 1930 74.0   5.0 16   12 24.4   9.8 2.8   1.7 NE | 45 6.6   1.9 ENE | 67 0.00 4.5   0.0 62.6   1.2 0.00 47.9   3.6 78.1   2.6 14.2   6.7
Franktown Creek 5/9/26 1930 62.9   5.8 34   7 34.5   0.4 2.1   1.2 WNW | 297 3.2   7.5 NW | 306 0.00 11.2   0.0 58.6   1.1 0.00 45.4   2.2 79.2   3.5 9.2   9.3
Musgrove Creek 5/9/26 1930 67.6   1.8 21   7 26.0   5.7 1.3   1.3 SW | 218 3.1   2.7 SSW | 211 0.00 40.2   1.5 55.0   0.5 0.00 52.2   0.4 75.3   2.6 11.6   3.6
East Carson 11/23/24 0110 28.6   28.4 - - 4.7   11.0 SW | 220 14.7   10.1 SW | 219 0.02 - 50.9   0.1 0.02 -25.9   79.1 42.9   14.6 16.0   10.7
Kings Canyon 5/9/26 1930 64.2   4.0 31   5 32.9   0.9 3.9   6.1 S | 176 6.2   11.8 S | 174 0.00 14.1   0.5 64.6   1.6 0.00 47.3   3.9 77.4   3.1 12.5   6.3
Carson City (Voltaire Canyon) 5/9/26 1930 74.8   5.8 15   11 24.2   8.6 7.3   5.2 N | 356 10.2   6.3 NNE | 14 0.00 2.9   0.0 64.0   1.4 0.00 53.8   1.8 78.4   2.8 14.9   10.3
Jacks Valley 5/9/26 1930 71.9   3.2 22   4 31.3   1.7 0.6   8.9 W | 280 2.7   15.9 WNW | 302 0.00 13.2   0.3 77.2   2.1 0.00 47.5   1.1 77.7   2.7 15.6   8.2
Genoa 5/9/26 1930 69.7   0.7 23   3 30.1   4.0 1.8   0.2 SSW | 208 4.0   5.8 SSW | 210 0.00 6.9   0.6 72.6   2.2 0.00 47.9   3.2 81.1   1.8 9.3   6.7
South Genoa (Walleys Hot Springs) 5/9/26 1930 75.9   2.7 18   5 29.6   3.6 3.8   12.0 NW | 307 7.1   20.7 WNW | 294 0.00 14.8   0.7 66.5   1.3 0.00 43.3   3.0 80.3   2.5 10.1   18.8
SW Gardnerville (HWY 88) 5/9/26 1930 68.5   1.1 31   2 36.6   0.5 7.5   3.3 W | 262 8.3   7.4 W | 259 0.00 3.4   0.0 61.4   1.1 0.00 41.4   4.1 77.9   1.7 10.8   12.3
Sheridan 5/9/26 1930 69.9   1.3 22   3 28.8   4.6 8.6   0.2 WSW | 237 10.3   3.6 WSW | 240 0.00 3.4   0.6 66.4   1.2 0.00 45.3   2.7 78.4   0.4 10.6   15.6
Ruhenstroth 5/9/26 1930 74.8   3.3 22   3 33.3   0.5 2.2   3.8 WNW | 289 5.5   5.5 WNW | 294 0.00 12.4   0.1 67.0   1.3 0.00 44.8   1.8 79.8   1.8 15.2   7.5
Double Spring 5/9/26 1930 70.2   3.4 22   4 29.4   0.9 2.8   6.3 NW | 304 4.8   9.2 NW | 311 0.00 31.3   0.0 65.0   1.1 0.00 40.4   1.6 75.1   1.3 15.9   16.1
North Topaz Lake 5/9/26 1930 72.1   2.3 16   5 23.4   5.1 6.0   2.5 NW | 320 8.8   7.3 NW | 321 0.00 9.8   0.0 72.6   0.9 0.00 54.4   2.2 77.5   1.2 19.4   8.8
Wild Oat Mountain 5/9/26 1930 70.2   2.9 18   6 24.6   4.9 8.4   3.1 NE | 49 11.9   8.8 NE | 52 0.00 16.9   0.1 64.7   2.1 0.00 53.3   1.8 74.8   0.1 15.2   9.2
Smith Valley 5/9/26 1930 73.1   0.6 18   3 26.6   3.1 4.0   0.7 WNW | 298 5.3   1.7 NW | 306 0.00 5.9   0.1 69.2   1.8 0.00 48.0   2.5 79.3   1.5 13.5   8.0
Pine Grove Mountain 5/9/26 1930 60.0   0.9 20   4 18.8   3.9 5.5   7.4 N | 357 10.8   10.2 N | 349 0.00 20.7   0.6 60.1   1.2 0.00 47.3   0.1 65.3   1.5 18.3   7.1
Paradise Hill 5/9/26 1930 74.4   0.7 12   5 18.6   9.4 7.5   1.7 NW | 306 8.9   7.0 NW | 308 0.00 8.0   0.1 66.0   1.4 0.00 42.2   0.2 79.5   0.8 17.0   9.9
Winnemucca 5/9/26 1930 73.4   3.1 11   7 15.9   14.2 1.8   2.7 NW | 322 4.8   1.0 NW | 309 0.00 6.0   0.0 66.7   1.5 0.00 51.4   0.4 79.0   0.5 15.2   12.9
NE Elko 5/9/26 1930 68.7   0.6 13   7 15.3   10.5 4.7   1.3 W | 270 7.5   1.2 WNW | 285 0.00 12.5   0.0 67.9   1.1 0.00 34.4   0.6 75.2   2.5 21.6   3.5
North Elko 5/9/26 1930 65.5   2.7 14   7 14.4   11.8 7.4   1.8 N | 351 8.8   4.8 N | 350 0.00 28.6   0.1 63.3   1.1 0.00 46.5   0.5 74.0   1.1 19.5   6.6
South Elko 5/9/26 1930 65.5   1.4 15   7 17.1   9.9 5.8   2.8 NNW | 346 10.9   2.6 NNW | 343 0.00 18.5   0.0 66.0   1.1 0.00 49.6   3.2 - 22.1   3.9
Lamoille 1/28/26 1720 33.2   0.5 65   17 22.8   6.3 5.8   1.5 SSE | 166 7.7   1.9 SE | 139 0.00 12.2   0.0 33.4   0.1 0.02 23.5   2.0 36.5   5.9 25.6   17.4
Reid Gardner Sub 5/9/26 1930 97.0   2.4 10   1 32.5   1.3 3.9   0.0 SW | 224 5.2   2.0 SW | 214 0.00 29.2   0.3 80.8   1.5 0.00 55.8   1.5 101.3   0.1 15.6   1.5
Corn Creek 5/9/26 1930 91.8   2.3 11   0 29.7   2.2 4.7   1.8 W | 274 7.7   2.9 W | 269 0.00 4.0   0.0 87.9   2.3 0.00 74.4   3.2 95.0   1.1 21.7   6.2
Lucky Strike 5/9/26 1930 78.5   0.9 12   1 20.9   0.9 7.1   2.8 WNW | 297 11.9   4.5 NW | 307 0.00 4.7   0.1 82.4   2.1 0.00 65.8   3.4 82.7   0.2 24.1   11.2
Lower Angel Peak 5/9/26 1930 67.5   1.2 19   1 24.0   0.1 4.9   2.2 S | 189 7.2   2.2 S | 187 0.00 9.6   0.2 64.1   1.8 0.00 55.0   1.8 77.6   0.9 18.6   10.3
Angel Peak 5/9/26 1930 61.5   2.1 19   5 18.9   3.9 3.7   7.1 WNW | 297 11.6   8.0 W | 281 0.00 3.8   0.6 64.6   1.5 0.00 56.2   2.8 67.9   5.9 18.3   14.8
Upper Kyle Canyon 5/9/26 1930 60.7   2.3 24   1 24.1   0.6 3.6   1.8 NW | 324 7.1   5.0 NW | 306 0.00 13.0   0.2 62.1   1.3 0.49 59.1   11.0 71.1   1.3 20.1   2.0
Mt Charleston 5/9/26 1930 62.0   1.8 25   1 25.4   0.2 1.3   2.0 SW | 229 4.8   3.0 SSE | 163 0.00 18.2   0.0 53.1   1.5 0.00 55.6   3.7 71.9   0.3 15.8   0.7
Mid Kyle Canyon 5/9/26 1930 67.8   0.2 18   1 23.4   1.6 6.0   2.3 NW | 314 8.1   5.3 NW | 313 0.00 7.0   0.0 66.8   0.9 0.02 57.7   1.3 78.1   0.1 20.7   11.3
Blue Diamond 5/9/26 1930 88.4   0.6 11   0 27.6   0.1 5.2   6.5 WNW | 283 9.9   7.8 W | 281 0.00 3.1   0.0 80.0   1.6 0.00 69.8   1.2 92.9   0.5 33.4   8.9
Artesian Sub 5/9/26 1930 99.1   1.2 9   0 30.1   1.3 1.5   1.9 ESE | 113 5.1   1.5 SSE | 148 0.00 13.1   0.0 75.8   0.9 0.00 74.8   4.6 102.5   0.3 12.8   2.5
North Henderson 5/9/26 1930 100.1   1.7 9   1 30.1   1.6 1.6   6.8 SW | 236 4.7   9.9 W | 268 0.00 9.5   0.0 83.5   2.0 0.00 79.7   6.8 102.2   0.3 16.6   3.1
Sandy Valley 5/9/26 1930 92.0   1.5 11   0 30.4   2.1 4.0   1.7 WNW | 289 7.7   0.1 NW | 306 0.00 4.6   0.0 89.9   2.2 0.00 69.4   0.7 96.0   0.9 21.5   10.4
Searchlight 5/9/26 1930 88.5   1.0 11   2 28.4   2.7 9.5   3.6 ESE | 122 16.2   6.2 SE | 132 0.00 4.9   0.1 88.7   2.5 0.00 69.9   1.4 93.5   0.6 45.0   15.2
Laughlin 5/9/26 1930 101.7   0.1 13   1 42.0   2.2 4.0   1.5 WSW | 240 6.1   4.2 WSW | 239 0.00 4.2   0.0 89.6   2.3 0.00 77.2   3.6 106.7   1.0 21.7   2.1
31Mission Hills 5/9/26 1930 94.7   0.8 9   0 28.3   0.4 2.3   8.4 ESE | 118 5.0   13.0 SE | 124 0.00 4.1   0.1 100.3   3.0 0.00 75.6   1.4 98.0   0.4 21.9   6.6
32 Enterprise Sierra Cliffs 5/9/26 1930 91.3   1.7 9   0 23.7   0.8 6.1   1.7 WSW | 250 10.3   6.6 WSW | 239 0.00 2.5   0.0 93.0   1.4 0.00 75.2   2.1 95.0   0.4 18.8   7.0
Max     101.7 44 42.0 9.5 - 16.2 - 0.00 44.3 100.3 0.49 79.7 106.7 45.0
Avg     73.3 18 26.2 3.8 - 6.5 - 0.00 13.1 65.2 - - - -
Min     60.0 9 14.4 0.0 - 0.0 - 0.00 1.8 32.0 0.00 28.9 65.3 7.1